logo
Search for airport 
image banner adimage banner adimage banner ad
image banner ad

VT43 - Onyon

Located in Townshend, United States

ICAO - VT43, IATA -

Data provided by Airmate  

General information

Coordinates: N43°1'9" W72°39'10"
Elevation is 427 feet MSL.
Magnetic variation is -15° East
View others Airports in Vermont

Operational data

Special qualification required
Current time UTC:
Current local time:
Weather at : KEEN - Dillant/Hopkins ( 34 km )
METAR: KEEN 171556Z AUTO 21009KT 10SM CLR 24/16 A3012 RMK AO2 SLP200 T02440156 $
View NOTAMs / SUP AIP / TFR affecting this airport [VIEW]
Communications frequencies: [VIEW]

Runways:

RWY identifierQFULength (ft)Width (ft)SurfaceLDA (ft)
122000100GRASS
302000100GRASS
H100UNK

Airport contact information

Address: Townshend United States

Satellite view of VT43